<?xml version="1.0" encoding="UTF-8" standalone="no" ?>
<gpx xmlns="http://www.topografix.com/GPX/1/1" xmlns:xsi="http://www.w3.org/2001/XMLSchema-instance" xsi:schemaLocation="http://www.topografix.com/GPX/1/1 http://www.topografix.com/GPX/1/1/gpx.xsd" version="1.1" creator="VisuGPX - https://www.visugpx.com">
  <metadata>
    <name>LeVernet Montvicq</name>
  </metadata>
  <trk>
    <name><![CDATA[LeVernet Montvicq]]></name>
    <extensions>
      <line xmlns="http://www.topografix.com/GPX/gpx_style/0/2">
        <color>0000FF</color>
        <width>4</width>
      </line>
    </extensions>
    <trkseg>
      <trkpt lat="46.33415" lon="2.81425">
        <ele>333.23</ele>
        <time>2021-01-19T13:49:34Z</time>
      </trkpt>
      <trkpt lat="46.33404" lon="2.81442">
        <ele>333.23</ele>
        <time>2021-01-19T13:50:17Z</time>
      </trkpt>
      <trkpt lat="46.33389" lon="2.81455">
        <ele>333.23</ele>
        <time>2021-01-19T13:51:05Z</time>
      </trkpt>
      <trkpt lat="46.33371" lon="2.81473">
        <ele>332.75</ele>
        <time>2021-01-19T13:51:25Z</time>
      </trkpt>
      <trkpt lat="46.3335" lon="2.81471">
        <ele>331.31</ele>
        <time>2021-01-19T13:51:40Z</time>
      </trkpt>
      <trkpt lat="46.3333" lon="2.81471">
        <ele>330.35</ele>
        <time>2021-01-19T13:51:56Z</time>
      </trkpt>
      <trkpt lat="46.3331" lon="2.81473">
        <ele>329.87</ele>
        <time>2021-01-19T13:52:10Z</time>
      </trkpt>
      <trkpt lat="46.33294" lon="2.81478">
        <ele>329.87</ele>
        <time>2021-01-19T13:52:25Z</time>
      </trkpt>
      <trkpt lat="46.33273" lon="2.81479">
        <ele>329.39</ele>
        <time>2021-01-19T13:52:41Z</time>
      </trkpt>
      <trkpt lat="46.33255" lon="2.81474">
        <ele>328.91</ele>
        <time>2021-01-19T13:52:56Z</time>
      </trkpt>
      <trkpt lat="46.33234" lon="2.81471">
        <ele>328.91</ele>
        <time>2021-01-19T13:53:13Z</time>
      </trkpt>
      <trkpt lat="46.33215" lon="2.81466">
        <ele>328.91</ele>
        <time>2021-01-19T13:53:28Z</time>
      </trkpt>
      <trkpt lat="46.33195" lon="2.81463">
        <ele>329.39</ele>
        <time>2021-01-19T13:53:45Z</time>
      </trkpt>
      <trkpt lat="46.33176" lon="2.81458">
        <ele>329.39</ele>
        <time>2021-01-19T13:54:00Z</time>
      </trkpt>
      <trkpt lat="46.33158" lon="2.81455">
        <ele>329.39</ele>
        <time>2021-01-19T13:54:14Z</time>
      </trkpt>
      <trkpt lat="46.33138" lon="2.81454">
        <ele>329.39</ele>
        <time>2021-01-19T13:54:31Z</time>
      </trkpt>
      <trkpt lat="46.33118" lon="2.81448">
        <ele>329.87</ele>
        <time>2021-01-19T13:54:47Z</time>
      </trkpt>
      <trkpt lat="46.331" lon="2.81438">
        <ele>329.87</ele>
        <time>2021-01-19T13:55:02Z</time>
      </trkpt>
      <trkpt lat="46.33082" lon="2.81427">
        <ele>329.39</ele>
        <time>2021-01-19T13:55:16Z</time>
      </trkpt>
      <trkpt lat="46.33066" lon="2.81409">
        <ele>328.91</ele>
        <time>2021-01-19T13:55:32Z</time>
      </trkpt>
      <trkpt lat="46.33056" lon="2.81384">
        <ele>329.39</ele>
        <time>2021-01-19T13:55:49Z</time>
      </trkpt>
      <trkpt lat="46.33046" lon="2.81353">
        <ele>329.39</ele>
        <time>2021-01-19T13:56:07Z</time>
      </trkpt>
      <trkpt lat="46.33031" lon="2.81332">
        <ele>329.39</ele>
        <time>2021-01-19T13:56:23Z</time>
      </trkpt>
      <trkpt lat="46.33012" lon="2.81321">
        <ele>328.91</ele>
        <time>2021-01-19T13:56:39Z</time>
      </trkpt>
      <trkpt lat="46.32993" lon="2.81312">
        <ele>328.91</ele>
        <time>2021-01-19T13:56:55Z</time>
      </trkpt>
      <trkpt lat="46.32974" lon="2.81307">
        <ele>329.39</ele>
        <time>2021-01-19T13:57:10Z</time>
      </trkpt>
      <trkpt lat="46.32952" lon="2.81302">
        <ele>328.43</ele>
        <time>2021-01-19T13:57:26Z</time>
      </trkpt>
      <trkpt lat="46.32933" lon="2.81303">
        <ele>327.95</ele>
        <time>2021-01-19T13:57:42Z</time>
      </trkpt>
      <trkpt lat="46.32915" lon="2.81298">
        <ele>327.47</ele>
        <time>2021-01-19T13:58:09Z</time>
      </trkpt>
      <trkpt lat="46.32894" lon="2.81297">
        <ele>327.47</ele>
        <time>2021-01-19T13:58:26Z</time>
      </trkpt>
      <trkpt lat="46.32874" lon="2.81294">
        <ele>327.47</ele>
        <time>2021-01-19T13:58:39Z</time>
      </trkpt>
      <trkpt lat="46.32859" lon="2.81279">
        <ele>326.5</ele>
        <time>2021-01-19T13:58:53Z</time>
      </trkpt>
      <trkpt lat="46.32853" lon="2.81251">
        <ele>326.02</ele>
        <time>2021-01-19T13:59:07Z</time>
      </trkpt>
      <trkpt lat="46.32846" lon="2.81225">
        <ele>325.06</ele>
        <time>2021-01-19T13:59:23Z</time>
      </trkpt>
      <trkpt lat="46.32838" lon="2.81198">
        <ele>325.54</ele>
        <time>2021-01-19T13:59:40Z</time>
      </trkpt>
      <trkpt lat="46.32825" lon="2.81176">
        <ele>325.06</ele>
        <time>2021-01-19T13:59:58Z</time>
      </trkpt>
      <trkpt lat="46.32809" lon="2.81159">
        <ele>325.06</ele>
        <time>2021-01-19T14:00:15Z</time>
      </trkpt>
      <trkpt lat="46.32792" lon="2.81146">
        <ele>324.58</ele>
        <time>2021-01-19T14:00:32Z</time>
      </trkpt>
      <trkpt lat="46.32776" lon="2.8113">
        <ele>325.06</ele>
        <time>2021-01-19T14:00:48Z</time>
      </trkpt>
      <trkpt lat="46.3276" lon="2.81118">
        <ele>324.1</ele>
        <time>2021-01-19T14:01:04Z</time>
      </trkpt>
      <trkpt lat="46.32739" lon="2.81115">
        <ele>323.62</ele>
        <time>2021-01-19T14:01:22Z</time>
      </trkpt>
      <trkpt lat="46.32719" lon="2.81114">
        <ele>325.06</ele>
        <time>2021-01-19T14:01:37Z</time>
      </trkpt>
      <trkpt lat="46.32701" lon="2.8111">
        <ele>324.1</ele>
        <time>2021-01-19T14:01:54Z</time>
      </trkpt>
      <trkpt lat="46.32682" lon="2.81104">
        <ele>323.62</ele>
        <time>2021-01-19T14:02:11Z</time>
      </trkpt>
      <trkpt lat="46.32664" lon="2.81101">
        <ele>323.14</ele>
        <time>2021-01-19T14:02:27Z</time>
      </trkpt>
      <trkpt lat="46.32644" lon="2.81101">
        <ele>322.66</ele>
        <time>2021-01-19T14:02:45Z</time>
      </trkpt>
      <trkpt lat="46.32625" lon="2.81097">
        <ele>323.14</ele>
        <time>2021-01-19T14:03:02Z</time>
      </trkpt>
      <trkpt lat="46.32604" lon="2.81096">
        <ele>322.66</ele>
        <time>2021-01-19T14:03:19Z</time>
      </trkpt>
      <trkpt lat="46.32584" lon="2.81104">
        <ele>322.66</ele>
        <time>2021-01-19T14:03:43Z</time>
      </trkpt>
      <trkpt lat="46.32561" lon="2.81125">
        <ele>321.7</ele>
        <time>2021-01-19T14:04:13Z</time>
      </trkpt>
      <trkpt lat="46.32531" lon="2.81148">
        <ele>321.22</ele>
        <time>2021-01-19T14:04:37Z</time>
      </trkpt>
      <trkpt lat="46.32506" lon="2.81172">
        <ele>321.22</ele>
        <time>2021-01-19T14:05:07Z</time>
      </trkpt>
      <trkpt lat="46.32485" lon="2.81219">
        <ele>325.54</ele>
        <time>2021-01-19T14:05:49Z</time>
      </trkpt>
      <trkpt lat="46.3247" lon="2.81255">
        <ele>332.27</ele>
        <time>2021-01-19T14:06:34Z</time>
      </trkpt>
      <trkpt lat="46.32446" lon="2.81296">
        <ele>329.87</ele>
        <time>2021-01-19T14:07:01Z</time>
      </trkpt>
      <trkpt lat="46.32423" lon="2.81321">
        <ele>329.87</ele>
        <time>2021-01-19T14:07:24Z</time>
      </trkpt>
      <trkpt lat="46.32394" lon="2.81332">
        <ele>329.39</ele>
        <time>2021-01-19T14:07:44Z</time>
      </trkpt>
      <trkpt lat="46.32371" lon="2.81325">
        <ele>329.39</ele>
        <time>2021-01-19T14:08:04Z</time>
      </trkpt>
      <trkpt lat="46.32356" lon="2.81301">
        <ele>329.39</ele>
        <time>2021-01-19T14:08:23Z</time>
      </trkpt>
      <trkpt lat="46.32362" lon="2.81262">
        <ele>322.18</ele>
        <time>2021-01-19T14:09:06Z</time>
      </trkpt>
      <trkpt lat="46.32344" lon="2.81228">
        <ele>316.41</ele>
        <time>2021-01-19T14:11:25Z</time>
      </trkpt>
      <trkpt lat="46.3235" lon="2.81224">
        <ele>314.97</ele>
        <time>2021-01-19T14:12:43Z</time>
      </trkpt>
      <trkpt lat="46.3236" lon="2.81258">
        <ele>319.78</ele>
        <time>2021-01-19T14:13:27Z</time>
      </trkpt>
      <trkpt lat="46.32359" lon="2.81302">
        <ele>324.1</ele>
        <time>2021-01-19T14:14:01Z</time>
      </trkpt>
      <trkpt lat="46.32342" lon="2.81294">
        <ele>324.1</ele>
        <time>2021-01-19T14:14:21Z</time>
      </trkpt>
      <trkpt lat="46.32319" lon="2.8128">
        <ele>324.1</ele>
        <time>2021-01-19T14:14:42Z</time>
      </trkpt>
      <trkpt lat="46.323" lon="2.81265">
        <ele>324.58</ele>
        <time>2021-01-19T14:15:01Z</time>
      </trkpt>
      <trkpt lat="46.32277" lon="2.81261">
        <ele>324.1</ele>
        <time>2021-01-19T14:15:21Z</time>
      </trkpt>
      <trkpt lat="46.32253" lon="2.81258">
        <ele>324.58</ele>
        <time>2021-01-19T14:15:40Z</time>
      </trkpt>
      <trkpt lat="46.32231" lon="2.81268">
        <ele>324.58</ele>
        <time>2021-01-19T14:16:05Z</time>
      </trkpt>
      <trkpt lat="46.32209" lon="2.81288">
        <ele>324.1</ele>
        <time>2021-01-19T14:16:24Z</time>
      </trkpt>
      <trkpt lat="46.32184" lon="2.81294">
        <ele>324.1</ele>
        <time>2021-01-19T14:16:45Z</time>
      </trkpt>
      <trkpt lat="46.32157" lon="2.81297">
        <ele>324.1</ele>
        <time>2021-01-19T14:17:05Z</time>
      </trkpt>
      <trkpt lat="46.32135" lon="2.81284">
        <ele>324.58</ele>
        <time>2021-01-19T14:17:26Z</time>
      </trkpt>
      <trkpt lat="46.32115" lon="2.81264">
        <ele>324.58</ele>
        <time>2021-01-19T14:17:49Z</time>
      </trkpt>
      <trkpt lat="46.32094" lon="2.81232">
        <ele>324.58</ele>
        <time>2021-01-19T14:18:09Z</time>
      </trkpt>
      <trkpt lat="46.32082" lon="2.81197">
        <ele>325.54</ele>
        <time>2021-01-19T14:18:31Z</time>
      </trkpt>
      <trkpt lat="46.32071" lon="2.81158">
        <ele>325.06</ele>
        <time>2021-01-19T14:18:53Z</time>
      </trkpt>
      <trkpt lat="46.32061" lon="2.81128">
        <ele>325.06</ele>
        <time>2021-01-19T14:19:14Z</time>
      </trkpt>
      <trkpt lat="46.32048" lon="2.811">
        <ele>325.54</ele>
        <time>2021-01-19T14:19:34Z</time>
      </trkpt>
      <trkpt lat="46.32029" lon="2.8108">
        <ele>325.54</ele>
        <time>2021-01-19T14:19:53Z</time>
      </trkpt>
      <trkpt lat="46.32007" lon="2.81062">
        <ele>325.54</ele>
        <time>2021-01-19T14:20:14Z</time>
      </trkpt>
      <trkpt lat="46.31984" lon="2.81056">
        <ele>325.54</ele>
        <time>2021-01-19T14:20:31Z</time>
      </trkpt>
      <trkpt lat="46.31964" lon="2.81045">
        <ele>326.02</ele>
        <time>2021-01-19T14:20:49Z</time>
      </trkpt>
      <trkpt lat="46.31941" lon="2.8104">
        <ele>326.02</ele>
        <time>2021-01-19T14:21:07Z</time>
      </trkpt>
      <trkpt lat="46.31921" lon="2.81032">
        <ele>326.02</ele>
        <time>2021-01-19T14:21:24Z</time>
      </trkpt>
      <trkpt lat="46.31899" lon="2.81026">
        <ele>326.02</ele>
        <time>2021-01-19T14:21:43Z</time>
      </trkpt>
      <trkpt lat="46.31878" lon="2.8102">
        <ele>326.02</ele>
        <time>2021-01-19T14:22:00Z</time>
      </trkpt>
      <trkpt lat="46.31856" lon="2.81011">
        <ele>326.02</ele>
        <time>2021-01-19T14:22:20Z</time>
      </trkpt>
      <trkpt lat="46.31835" lon="2.81005">
        <ele>326.02</ele>
        <time>2021-01-19T14:22:37Z</time>
      </trkpt>
      <trkpt lat="46.31814" lon="2.81">
        <ele>326.5</ele>
        <time>2021-01-19T14:22:58Z</time>
      </trkpt>
      <trkpt lat="46.31794" lon="2.81006">
        <ele>326.5</ele>
        <time>2021-01-19T14:23:16Z</time>
      </trkpt>
      <trkpt lat="46.31774" lon="2.81022">
        <ele>326.99</ele>
        <time>2021-01-19T14:23:33Z</time>
      </trkpt>
      <trkpt lat="46.31754" lon="2.81036">
        <ele>326.99</ele>
        <time>2021-01-19T14:23:52Z</time>
      </trkpt>
      <trkpt lat="46.31732" lon="2.8105">
        <ele>326.99</ele>
        <time>2021-01-19T14:24:15Z</time>
      </trkpt>
      <trkpt lat="46.31708" lon="2.81064">
        <ele>326.99</ele>
        <time>2021-01-19T14:24:37Z</time>
      </trkpt>
      <trkpt lat="46.31683" lon="2.81076">
        <ele>327.47</ele>
        <time>2021-01-19T14:24:58Z</time>
      </trkpt>
      <trkpt lat="46.31664" lon="2.81082">
        <ele>327.95</ele>
        <time>2021-01-19T14:25:30Z</time>
      </trkpt>
      <trkpt lat="46.31638" lon="2.81081">
        <ele>327.47</ele>
        <time>2021-01-19T14:26:18Z</time>
      </trkpt>
      <trkpt lat="46.31617" lon="2.81072">
        <ele>327.95</ele>
        <time>2021-01-19T14:26:39Z</time>
      </trkpt>
      <trkpt lat="46.31595" lon="2.81074">
        <ele>323.14</ele>
        <time>2021-01-19T14:27:14Z</time>
      </trkpt>
      <trkpt lat="46.31579" lon="2.81085">
        <ele>321.22</ele>
        <time>2021-01-19T14:30:04Z</time>
      </trkpt>
      <trkpt lat="46.31569" lon="2.81113">
        <ele>320.74</ele>
        <time>2021-01-19T14:30:27Z</time>
      </trkpt>
      <trkpt lat="46.31552" lon="2.81133">
        <ele>322.18</ele>
        <time>2021-01-19T14:31:19Z</time>
      </trkpt>
      <trkpt lat="46.31569" lon="2.81151">
        <ele>325.54</ele>
        <time>2021-01-19T14:31:54Z</time>
      </trkpt>
      <trkpt lat="46.31591" lon="2.81163">
        <ele>327.95</ele>
        <time>2021-01-19T14:32:22Z</time>
      </trkpt>
      <trkpt lat="46.3161" lon="2.81183">
        <ele>331.79</ele>
        <time>2021-01-19T14:32:53Z</time>
      </trkpt>
      <trkpt lat="46.31626" lon="2.81209">
        <ele>333.71</ele>
        <time>2021-01-19T14:33:21Z</time>
      </trkpt>
      <trkpt lat="46.31635" lon="2.81237">
        <ele>337.08</ele>
        <time>2021-01-19T14:33:47Z</time>
      </trkpt>
      <trkpt lat="46.3165" lon="2.81258">
        <ele>340.92</ele>
        <time>2021-01-19T14:34:46Z</time>
      </trkpt>
      <trkpt lat="46.31632" lon="2.81277">
        <ele>339.48</ele>
        <time>2021-01-19T14:36:06Z</time>
      </trkpt>
      <trkpt lat="46.31612" lon="2.81303">
        <ele>339</ele>
        <time>2021-01-19T14:36:25Z</time>
      </trkpt>
      <trkpt lat="46.31593" lon="2.81333">
        <ele>338.04</ele>
        <time>2021-01-19T14:36:50Z</time>
      </trkpt>
      <trkpt lat="46.31581" lon="2.81365">
        <ele>337.08</ele>
        <time>2021-01-19T14:37:11Z</time>
      </trkpt>
      <trkpt lat="46.3157" lon="2.81408">
        <ele>336.12</ele>
        <time>2021-01-19T14:37:35Z</time>
      </trkpt>
      <trkpt lat="46.31558" lon="2.81451">
        <ele>335.16</ele>
        <time>2021-01-19T14:38:02Z</time>
      </trkpt>
      <trkpt lat="46.3155" lon="2.81485">
        <ele>334.68</ele>
        <time>2021-01-19T14:38:22Z</time>
      </trkpt>
      <trkpt lat="46.31535" lon="2.81523">
        <ele>333.71</ele>
        <time>2021-01-19T14:38:45Z</time>
      </trkpt>
      <trkpt lat="46.31526" lon="2.81551">
        <ele>333.23</ele>
        <time>2021-01-19T14:39:04Z</time>
      </trkpt>
      <trkpt lat="46.31513" lon="2.81588">
        <ele>332.75</ele>
        <time>2021-01-19T14:39:30Z</time>
      </trkpt>
      <trkpt lat="46.31504" lon="2.81629">
        <ele>332.27</ele>
        <time>2021-01-19T14:39:53Z</time>
      </trkpt>
      <trkpt lat="46.31498" lon="2.81663">
        <ele>331.79</ele>
        <time>2021-01-19T14:40:12Z</time>
      </trkpt>
      <trkpt lat="46.31492" lon="2.81712">
        <ele>331.31</ele>
        <time>2021-01-19T14:40:40Z</time>
      </trkpt>
      <trkpt lat="46.31482" lon="2.81752">
        <ele>330.35</ele>
        <time>2021-01-19T14:41:03Z</time>
      </trkpt>
      <trkpt lat="46.31467" lon="2.81794">
        <ele>330.35</ele>
        <time>2021-01-19T14:41:26Z</time>
      </trkpt>
      <trkpt lat="46.31447" lon="2.81816">
        <ele>329.87</ele>
        <time>2021-01-19T14:41:44Z</time>
      </trkpt>
      <trkpt lat="46.31431" lon="2.81847">
        <ele>330.35</ele>
        <time>2021-01-19T14:42:06Z</time>
      </trkpt>
      <trkpt lat="46.31428" lon="2.81879">
        <ele>329.87</ele>
        <time>2021-01-19T14:42:25Z</time>
      </trkpt>
      <trkpt lat="46.31431" lon="2.8191">
        <ele>328.91</ele>
        <time>2021-01-19T14:42:43Z</time>
      </trkpt>
      <trkpt lat="46.31422" lon="2.8194">
        <ele>327.95</ele>
        <time>2021-01-19T14:43:01Z</time>
      </trkpt>
      <trkpt lat="46.31414" lon="2.81976">
        <ele>327.47</ele>
        <time>2021-01-19T14:43:23Z</time>
      </trkpt>
      <trkpt lat="46.31407" lon="2.82009">
        <ele>327.47</ele>
        <time>2021-01-19T14:43:48Z</time>
      </trkpt>
      <trkpt lat="46.31401" lon="2.82055">
        <ele>328.91</ele>
        <time>2021-01-19T14:44:12Z</time>
      </trkpt>
      <trkpt lat="46.31402" lon="2.82087">
        <ele>330.35</ele>
        <time>2021-01-19T14:44:31Z</time>
      </trkpt>
      <trkpt lat="46.31397" lon="2.82115">
        <ele>330.35</ele>
        <time>2021-01-19T14:44:49Z</time>
      </trkpt>
      <trkpt lat="46.3139" lon="2.82143">
        <ele>329.87</ele>
        <time>2021-01-19T14:45:06Z</time>
      </trkpt>
      <trkpt lat="46.31378" lon="2.82166">
        <ele>331.31</ele>
        <time>2021-01-19T14:45:24Z</time>
      </trkpt>
      <trkpt lat="46.31363" lon="2.82187">
        <ele>331.31</ele>
        <time>2021-01-19T14:45:44Z</time>
      </trkpt>
      <trkpt lat="46.3134" lon="2.8221">
        <ele>332.27</ele>
        <time>2021-01-19T14:46:11Z</time>
      </trkpt>
      <trkpt lat="46.31323" lon="2.82239">
        <ele>334.2</ele>
        <time>2021-01-19T14:46:36Z</time>
      </trkpt>
      <trkpt lat="46.3131" lon="2.82276">
        <ele>336.12</ele>
        <time>2021-01-19T14:47:02Z</time>
      </trkpt>
      <trkpt lat="46.31305" lon="2.82309">
        <ele>338.52</ele>
        <time>2021-01-19T14:47:27Z</time>
      </trkpt>
      <trkpt lat="46.31298" lon="2.8235">
        <ele>343.33</ele>
        <time>2021-01-19T14:48:01Z</time>
      </trkpt>
      <trkpt lat="46.31294" lon="2.82385">
        <ele>345.73</ele>
        <time>2021-01-19T14:48:28Z</time>
      </trkpt>
      <trkpt lat="46.31287" lon="2.8242">
        <ele>349.58</ele>
        <time>2021-01-19T14:48:57Z</time>
      </trkpt>
      <trkpt lat="46.31278" lon="2.82447">
        <ele>351.5</ele>
        <time>2021-01-19T14:49:21Z</time>
      </trkpt>
      <trkpt lat="46.31272" lon="2.82484">
        <ele>355.34</ele>
        <time>2021-01-19T14:49:52Z</time>
      </trkpt>
      <trkpt lat="46.31267" lon="2.82516">
        <ele>356.31</ele>
        <time>2021-01-19T14:50:12Z</time>
      </trkpt>
      <trkpt lat="46.3127" lon="2.82548">
        <ele>358.23</ele>
        <time>2021-01-19T14:50:35Z</time>
      </trkpt>
      <trkpt lat="46.31274" lon="2.82574">
        <ele>359.67</ele>
        <time>2021-01-19T14:50:54Z</time>
      </trkpt>
      <trkpt lat="46.31277" lon="2.82604">
        <ele>361.11</ele>
        <time>2021-01-19T14:51:13Z</time>
      </trkpt>
      <trkpt lat="46.31281" lon="2.82631">
        <ele>362.07</ele>
        <time>2021-01-19T14:51:32Z</time>
      </trkpt>
      <trkpt lat="46.31282" lon="2.82659">
        <ele>364</ele>
        <time>2021-01-19T14:51:54Z</time>
      </trkpt>
      <trkpt lat="46.31269" lon="2.82686">
        <ele>366.4</ele>
        <time>2021-01-19T14:52:19Z</time>
      </trkpt>
      <trkpt lat="46.3127" lon="2.82717">
        <ele>367.84</ele>
        <time>2021-01-19T14:52:38Z</time>
      </trkpt>
      <trkpt lat="46.31278" lon="2.82741">
        <ele>369.28</ele>
        <time>2021-01-19T14:52:55Z</time>
      </trkpt>
      <trkpt lat="46.31293" lon="2.82758">
        <ele>371.21</ele>
        <time>2021-01-19T14:53:13Z</time>
      </trkpt>
      <trkpt lat="46.31306" lon="2.82779">
        <ele>372.65</ele>
        <time>2021-01-19T14:53:31Z</time>
      </trkpt>
      <trkpt lat="46.31319" lon="2.828">
        <ele>373.13</ele>
        <time>2021-01-19T14:53:48Z</time>
      </trkpt>
      <trkpt lat="46.31329" lon="2.82823">
        <ele>373.61</ele>
        <time>2021-01-19T14:54:03Z</time>
      </trkpt>
      <trkpt lat="46.31339" lon="2.82848">
        <ele>374.09</ele>
        <time>2021-01-19T14:54:19Z</time>
      </trkpt>
      <trkpt lat="46.31351" lon="2.82866">
        <ele>375.05</ele>
        <time>2021-01-19T14:54:34Z</time>
      </trkpt>
      <trkpt lat="46.31368" lon="2.82872">
        <ele>375.53</ele>
        <time>2021-01-19T14:54:50Z</time>
      </trkpt>
      <trkpt lat="46.31388" lon="2.82878">
        <ele>376.01</ele>
        <time>2021-01-19T14:55:06Z</time>
      </trkpt>
      <trkpt lat="46.31405" lon="2.82883">
        <ele>376.49</ele>
        <time>2021-01-19T14:56:32Z</time>
      </trkpt>
      <trkpt lat="46.31411" lon="2.82879">
        <ele>376.97</ele>
        <time>2021-01-19T15:00:39Z</time>
      </trkpt>
      <trkpt lat="46.31429" lon="2.82871">
        <ele>376.97</ele>
        <time>2021-01-19T15:00:56Z</time>
      </trkpt>
      <trkpt lat="46.31442" lon="2.82854">
        <ele>377.45</ele>
        <time>2021-01-19T15:01:12Z</time>
      </trkpt>
      <trkpt lat="46.31459" lon="2.82838">
        <ele>377.45</ele>
        <time>2021-01-19T15:01:28Z</time>
      </trkpt>
      <trkpt lat="46.31476" lon="2.82825">
        <ele>377.45</ele>
        <time>2021-01-19T15:01:44Z</time>
      </trkpt>
      <trkpt lat="46.31493" lon="2.82812">
        <ele>377.45</ele>
        <time>2021-01-19T15:02:00Z</time>
      </trkpt>
      <trkpt lat="46.3151" lon="2.82796">
        <ele>377.45</ele>
        <time>2021-01-19T15:02:15Z</time>
      </trkpt>
      <trkpt lat="46.3153" lon="2.82791">
        <ele>376.97</ele>
        <time>2021-01-19T15:02:31Z</time>
      </trkpt>
      <trkpt lat="46.31549" lon="2.82793">
        <ele>377.45</ele>
        <time>2021-01-19T15:02:46Z</time>
      </trkpt>
      <trkpt lat="46.31569" lon="2.82797">
        <ele>376.97</ele>
        <time>2021-01-19T15:03:01Z</time>
      </trkpt>
      <trkpt lat="46.31587" lon="2.82803">
        <ele>376.49</ele>
        <time>2021-01-19T15:03:15Z</time>
      </trkpt>
      <trkpt lat="46.31605" lon="2.82802">
        <ele>376.49</ele>
        <time>2021-01-19T15:03:30Z</time>
      </trkpt>
      <trkpt lat="46.3162" lon="2.82788">
        <ele>375.53</ele>
        <time>2021-01-19T15:03:45Z</time>
      </trkpt>
      <trkpt lat="46.31635" lon="2.82772">
        <ele>376.01</ele>
        <time>2021-01-19T15:04:00Z</time>
      </trkpt>
      <trkpt lat="46.31652" lon="2.8276">
        <ele>374.57</ele>
        <time>2021-01-19T15:04:15Z</time>
      </trkpt>
      <trkpt lat="46.3167" lon="2.82747">
        <ele>373.61</ele>
        <time>2021-01-19T15:04:30Z</time>
      </trkpt>
      <trkpt lat="46.31686" lon="2.82734">
        <ele>372.65</ele>
        <time>2021-01-19T15:04:44Z</time>
      </trkpt>
      <trkpt lat="46.317" lon="2.82716">
        <ele>372.65</ele>
        <time>2021-01-19T15:04:59Z</time>
      </trkpt>
      <trkpt lat="46.31711" lon="2.82693">
        <ele>371.69</ele>
        <time>2021-01-19T15:05:13Z</time>
      </trkpt>
      <trkpt lat="46.31723" lon="2.82672">
        <ele>371.21</ele>
        <time>2021-01-19T15:05:28Z</time>
      </trkpt>
      <trkpt lat="46.31736" lon="2.82652">
        <ele>370.24</ele>
        <time>2021-01-19T15:05:43Z</time>
      </trkpt>
      <trkpt lat="46.31748" lon="2.82632">
        <ele>369.76</ele>
        <time>2021-01-19T15:05:56Z</time>
      </trkpt>
      <trkpt lat="46.31763" lon="2.82616">
        <ele>369.28</ele>
        <time>2021-01-19T15:06:10Z</time>
      </trkpt>
      <trkpt lat="46.31783" lon="2.82612">
        <ele>368.32</ele>
        <time>2021-01-19T15:06:25Z</time>
      </trkpt>
      <trkpt lat="46.31802" lon="2.8261">
        <ele>367.36</ele>
        <time>2021-01-19T15:06:39Z</time>
      </trkpt>
      <trkpt lat="46.31821" lon="2.82607">
        <ele>366.4</ele>
        <time>2021-01-19T15:06:55Z</time>
      </trkpt>
      <trkpt lat="46.31838" lon="2.82599">
        <ele>365.44</ele>
        <time>2021-01-19T15:07:10Z</time>
      </trkpt>
      <trkpt lat="46.31852" lon="2.82581">
        <ele>364.48</ele>
        <time>2021-01-19T15:07:24Z</time>
      </trkpt>
      <trkpt lat="46.31865" lon="2.82559">
        <ele>364</ele>
        <time>2021-01-19T15:07:40Z</time>
      </trkpt>
      <trkpt lat="46.3188" lon="2.82538">
        <ele>363.04</ele>
        <time>2021-01-19T15:07:56Z</time>
      </trkpt>
      <trkpt lat="46.31895" lon="2.82522">
        <ele>363.04</ele>
        <time>2021-01-19T15:08:11Z</time>
      </trkpt>
      <trkpt lat="46.31906" lon="2.82497">
        <ele>363.52</ele>
        <time>2021-01-19T15:08:28Z</time>
      </trkpt>
      <trkpt lat="46.3192" lon="2.82474">
        <ele>364</ele>
        <time>2021-01-19T15:08:46Z</time>
      </trkpt>
      <trkpt lat="46.31936" lon="2.82451">
        <ele>364.48</ele>
        <time>2021-01-19T15:09:03Z</time>
      </trkpt>
      <trkpt lat="46.31949" lon="2.82426">
        <ele>364.96</ele>
        <time>2021-01-19T15:09:20Z</time>
      </trkpt>
      <trkpt lat="46.31962" lon="2.82399">
        <ele>365.44</ele>
        <time>2021-01-19T15:09:39Z</time>
      </trkpt>
      <trkpt lat="46.31976" lon="2.82377">
        <ele>366.4</ele>
        <time>2021-01-19T15:09:56Z</time>
      </trkpt>
      <trkpt lat="46.31987" lon="2.82353">
        <ele>367.36</ele>
        <time>2021-01-19T15:10:12Z</time>
      </trkpt>
      <trkpt lat="46.31994" lon="2.8233">
        <ele>368.32</ele>
        <time>2021-01-19T15:10:31Z</time>
      </trkpt>
      <trkpt lat="46.31994" lon="2.82302">
        <ele>367.84</ele>
        <time>2021-01-19T15:10:47Z</time>
      </trkpt>
      <trkpt lat="46.31993" lon="2.82274">
        <ele>366.4</ele>
        <time>2021-01-19T15:11:02Z</time>
      </trkpt>
      <trkpt lat="46.31992" lon="2.82249">
        <ele>366.88</ele>
        <time>2021-01-19T15:11:17Z</time>
      </trkpt>
      <trkpt lat="46.31995" lon="2.8222">
        <ele>366.4</ele>
        <time>2021-01-19T15:11:34Z</time>
      </trkpt>
      <trkpt lat="46.32001" lon="2.82196">
        <ele>365.92</ele>
        <time>2021-01-19T15:11:50Z</time>
      </trkpt>
      <trkpt lat="46.32016" lon="2.82172">
        <ele>365.92</ele>
        <time>2021-01-19T15:12:08Z</time>
      </trkpt>
      <trkpt lat="46.32026" lon="2.82148">
        <ele>365.92</ele>
        <time>2021-01-19T15:12:23Z</time>
      </trkpt>
      <trkpt lat="46.32038" lon="2.82127">
        <ele>365.44</ele>
        <time>2021-01-19T15:12:41Z</time>
      </trkpt>
      <trkpt lat="46.32055" lon="2.8211">
        <ele>363.52</ele>
        <time>2021-01-19T15:12:56Z</time>
      </trkpt>
      <trkpt lat="46.32068" lon="2.82101">
        <ele>362.55</ele>
        <time>2021-01-19T15:13:09Z</time>
      </trkpt>
      <trkpt lat="46.32086" lon="2.8209">
        <ele>361.11</ele>
        <time>2021-01-19T15:13:24Z</time>
      </trkpt>
      <trkpt lat="46.32105" lon="2.82076">
        <ele>359.67</ele>
        <time>2021-01-19T15:13:41Z</time>
      </trkpt>
      <trkpt lat="46.32115" lon="2.8205">
        <ele>357.27</ele>
        <time>2021-01-19T15:14:00Z</time>
      </trkpt>
      <trkpt lat="46.32127" lon="2.82024">
        <ele>355.83</ele>
        <time>2021-01-19T15:14:17Z</time>
      </trkpt>
      <trkpt lat="46.32142" lon="2.82004">
        <ele>353.9</ele>
        <time>2021-01-19T15:14:31Z</time>
      </trkpt>
      <trkpt lat="46.32158" lon="2.8199">
        <ele>352.46</ele>
        <time>2021-01-19T15:14:44Z</time>
      </trkpt>
      <trkpt lat="46.32173" lon="2.81978">
        <ele>350.54</ele>
        <time>2021-01-19T15:15:00Z</time>
      </trkpt>
      <trkpt lat="46.32192" lon="2.81972">
        <ele>348.62</ele>
        <time>2021-01-19T15:15:15Z</time>
      </trkpt>
      <trkpt lat="46.32213" lon="2.81964">
        <ele>346.69</ele>
        <time>2021-01-19T15:15:35Z</time>
      </trkpt>
      <trkpt lat="46.32236" lon="2.81956">
        <ele>344.29</ele>
        <time>2021-01-19T15:15:52Z</time>
      </trkpt>
      <trkpt lat="46.32256" lon="2.8195">
        <ele>342.37</ele>
        <time>2021-01-19T15:16:08Z</time>
      </trkpt>
      <trkpt lat="46.32277" lon="2.81942">
        <ele>340.44</ele>
        <time>2021-01-19T15:16:28Z</time>
      </trkpt>
      <trkpt lat="46.32297" lon="2.81921">
        <ele>338.52</ele>
        <time>2021-01-19T15:16:47Z</time>
      </trkpt>
      <trkpt lat="46.32314" lon="2.81897">
        <ele>335.64</ele>
        <time>2021-01-19T15:18:17Z</time>
      </trkpt>
      <trkpt lat="46.32329" lon="2.81877">
        <ele>333.71</ele>
        <time>2021-01-19T15:19:09Z</time>
      </trkpt>
      <trkpt lat="46.32347" lon="2.81864">
        <ele>331.79</ele>
        <time>2021-01-19T15:19:24Z</time>
      </trkpt>
      <trkpt lat="46.32365" lon="2.81852">
        <ele>329.39</ele>
        <time>2021-01-19T15:19:41Z</time>
      </trkpt>
      <trkpt lat="46.32385" lon="2.81849">
        <ele>327.95</ele>
        <time>2021-01-19T15:19:58Z</time>
      </trkpt>
      <trkpt lat="46.32406" lon="2.81852">
        <ele>327.47</ele>
        <time>2021-01-19T15:20:12Z</time>
      </trkpt>
      <trkpt lat="46.32426" lon="2.81855">
        <ele>326.02</ele>
        <time>2021-01-19T15:20:28Z</time>
      </trkpt>
      <trkpt lat="46.32445" lon="2.81861">
        <ele>325.54</ele>
        <time>2021-01-19T15:20:43Z</time>
      </trkpt>
      <trkpt lat="46.32465" lon="2.81861">
        <ele>325.06</ele>
        <time>2021-01-19T15:20:59Z</time>
      </trkpt>
      <trkpt lat="46.32484" lon="2.81854">
        <ele>324.58</ele>
        <time>2021-01-19T15:21:14Z</time>
      </trkpt>
      <trkpt lat="46.325" lon="2.81845">
        <ele>324.58</ele>
        <time>2021-01-19T15:21:28Z</time>
      </trkpt>
      <trkpt lat="46.3251" lon="2.81825">
        <ele>325.06</ele>
        <time>2021-01-19T15:21:45Z</time>
      </trkpt>
      <trkpt lat="46.32519" lon="2.81802">
        <ele>326.02</ele>
        <time>2021-01-19T15:22:03Z</time>
      </trkpt>
      <trkpt lat="46.32528" lon="2.81776">
        <ele>326.99</ele>
        <time>2021-01-19T15:22:21Z</time>
      </trkpt>
      <trkpt lat="46.32539" lon="2.81745">
        <ele>329.39</ele>
        <time>2021-01-19T15:22:43Z</time>
      </trkpt>
      <trkpt lat="46.32548" lon="2.81714">
        <ele>331.31</ele>
        <time>2021-01-19T15:23:03Z</time>
      </trkpt>
      <trkpt lat="46.32559" lon="2.8169">
        <ele>333.71</ele>
        <time>2021-01-19T15:23:22Z</time>
      </trkpt>
      <trkpt lat="46.3257" lon="2.81666">
        <ele>334.68</ele>
        <time>2021-01-19T15:23:39Z</time>
      </trkpt>
      <trkpt lat="46.32584" lon="2.81646">
        <ele>336.12</ele>
        <time>2021-01-19T15:23:57Z</time>
      </trkpt>
      <trkpt lat="46.32601" lon="2.81625">
        <ele>337.08</ele>
        <time>2021-01-19T15:24:16Z</time>
      </trkpt>
      <trkpt lat="46.32618" lon="2.81609">
        <ele>338.04</ele>
        <time>2021-01-19T15:24:34Z</time>
      </trkpt>
      <trkpt lat="46.32636" lon="2.81594">
        <ele>338.04</ele>
        <time>2021-01-19T15:24:50Z</time>
      </trkpt>
      <trkpt lat="46.32654" lon="2.81585">
        <ele>337.56</ele>
        <time>2021-01-19T15:25:04Z</time>
      </trkpt>
      <trkpt lat="46.32669" lon="2.81573">
        <ele>337.08</ele>
        <time>2021-01-19T15:25:30Z</time>
      </trkpt>
      <trkpt lat="46.32683" lon="2.81556">
        <ele>335.64</ele>
        <time>2021-01-19T15:27:18Z</time>
      </trkpt>
      <trkpt lat="46.32693" lon="2.81534">
        <ele>334.68</ele>
        <time>2021-01-19T15:27:35Z</time>
      </trkpt>
      <trkpt lat="46.32706" lon="2.81509">
        <ele>333.23</ele>
        <time>2021-01-19T15:27:53Z</time>
      </trkpt>
      <trkpt lat="46.3272" lon="2.8148">
        <ele>331.79</ele>
        <time>2021-01-19T15:28:10Z</time>
      </trkpt>
      <trkpt lat="46.32734" lon="2.81457">
        <ele>329.39</ele>
        <time>2021-01-19T15:28:29Z</time>
      </trkpt>
      <trkpt lat="46.3275" lon="2.81436">
        <ele>326.02</ele>
        <time>2021-01-19T15:28:48Z</time>
      </trkpt>
      <trkpt lat="46.32766" lon="2.81413">
        <ele>321.22</ele>
        <time>2021-01-19T15:29:10Z</time>
      </trkpt>
      <trkpt lat="46.32787" lon="2.81396">
        <ele>318.81</ele>
        <time>2021-01-19T15:29:27Z</time>
      </trkpt>
      <trkpt lat="46.32806" lon="2.81379">
        <ele>314.97</ele>
        <time>2021-01-19T15:29:47Z</time>
      </trkpt>
      <trkpt lat="46.32828" lon="2.81386">
        <ele>312.57</ele>
        <time>2021-01-19T15:30:06Z</time>
      </trkpt>
      <trkpt lat="46.32845" lon="2.81397">
        <ele>311.6</ele>
        <time>2021-01-19T15:30:20Z</time>
      </trkpt>
      <trkpt lat="46.32862" lon="2.8138">
        <ele>308.24</ele>
        <time>2021-01-19T15:30:41Z</time>
      </trkpt>
      <trkpt lat="46.32877" lon="2.8135">
        <ele>303.91</ele>
        <time>2021-01-19T15:31:06Z</time>
      </trkpt>
      <trkpt lat="46.32898" lon="2.81332">
        <ele>298.63</ele>
        <time>2021-01-19T15:31:29Z</time>
      </trkpt>
      <trkpt lat="46.32916" lon="2.81314">
        <ele>295.26</ele>
        <time>2021-01-19T15:31:49Z</time>
      </trkpt>
      <trkpt lat="46.32931" lon="2.81301">
        <ele>292.86</ele>
        <time>2021-01-19T15:32:09Z</time>
      </trkpt>
      <trkpt lat="46.32937" lon="2.81306">
        <ele>292.86</ele>
        <time>2021-01-19T15:32:39Z</time>
      </trkpt>
      <trkpt lat="46.32951" lon="2.81295">
        <ele>292.38</ele>
        <time>2021-01-19T15:33:09Z</time>
      </trkpt>
      <trkpt lat="46.3297" lon="2.81294">
        <ele>292.86</ele>
        <time>2021-01-19T15:33:26Z</time>
      </trkpt>
      <trkpt lat="46.3299" lon="2.81298">
        <ele>292.86</ele>
        <time>2021-01-19T15:33:44Z</time>
      </trkpt>
      <trkpt lat="46.33012" lon="2.81305">
        <ele>292.86</ele>
        <time>2021-01-19T15:34:02Z</time>
      </trkpt>
      <trkpt lat="46.33029" lon="2.81325">
        <ele>292.38</ele>
        <time>2021-01-19T15:34:21Z</time>
      </trkpt>
      <trkpt lat="46.33044" lon="2.81342">
        <ele>292.38</ele>
        <time>2021-01-19T15:34:36Z</time>
      </trkpt>
      <trkpt lat="46.33056" lon="2.81366">
        <ele>291.9</ele>
        <time>2021-01-19T15:34:52Z</time>
      </trkpt>
      <trkpt lat="46.33066" lon="2.81393">
        <ele>291.42</ele>
        <time>2021-01-19T15:35:11Z</time>
      </trkpt>
      <trkpt lat="46.33081" lon="2.81413">
        <ele>291.42</ele>
        <time>2021-01-19T15:35:27Z</time>
      </trkpt>
      <trkpt lat="46.33097" lon="2.81425">
        <ele>291.42</ele>
        <time>2021-01-19T15:35:42Z</time>
      </trkpt>
      <trkpt lat="46.33116" lon="2.81434">
        <ele>291.42</ele>
        <time>2021-01-19T15:36:00Z</time>
      </trkpt>
      <trkpt lat="46.33134" lon="2.81443">
        <ele>290.94</ele>
        <time>2021-01-19T15:36:16Z</time>
      </trkpt>
      <trkpt lat="46.33155" lon="2.81445">
        <ele>290.46</ele>
        <time>2021-01-19T15:36:37Z</time>
      </trkpt>
      <trkpt lat="46.33178" lon="2.81448">
        <ele>289.97</ele>
        <time>2021-01-19T15:36:52Z</time>
      </trkpt>
      <trkpt lat="46.33198" lon="2.81453">
        <ele>289.49</ele>
        <time>2021-01-19T15:37:09Z</time>
      </trkpt>
      <trkpt lat="46.33221" lon="2.81457">
        <ele>289.01</ele>
        <time>2021-01-19T15:37:28Z</time>
      </trkpt>
      <trkpt lat="46.33239" lon="2.81459">
        <ele>288.53</ele>
        <time>2021-01-19T15:37:41Z</time>
      </trkpt>
      <trkpt lat="46.33258" lon="2.81465">
        <ele>288.05</ele>
        <time>2021-01-19T15:37:56Z</time>
      </trkpt>
      <trkpt lat="46.33275" lon="2.81468">
        <ele>288.53</ele>
        <time>2021-01-19T15:38:11Z</time>
      </trkpt>
      <trkpt lat="46.33293" lon="2.81469">
        <ele>288.05</ele>
        <time>2021-01-19T15:38:27Z</time>
      </trkpt>
      <trkpt lat="46.33312" lon="2.81464">
        <ele>288.05</ele>
        <time>2021-01-19T15:38:44Z</time>
      </trkpt>
      <trkpt lat="46.3333" lon="2.81461">
        <ele>288.05</ele>
        <time>2021-01-19T15:38:57Z</time>
      </trkpt>
      <trkpt lat="46.33347" lon="2.81465">
        <ele>288.05</ele>
        <time>2021-01-19T15:39:12Z</time>
      </trkpt>
      <trkpt lat="46.33367" lon="2.81467">
        <ele>289.01</ele>
        <time>2021-01-19T15:39:30Z</time>
      </trkpt>
      <trkpt lat="46.33385" lon="2.81456">
        <ele>289.97</ele>
        <time>2021-01-19T15:39:45Z</time>
      </trkpt>
      <trkpt lat="46.334" lon="2.81448">
        <ele>289.01</ele>
        <time>2021-01-19T15:40:00Z</time>
      </trkpt>
      <trkpt lat="46.33415" lon="2.81434">
        <ele>288.05</ele>
        <time>2021-01-19T15:40:15Z</time>
      </trkpt>
    </trkseg>
  </trk>
</gpx>